createdAt,value
2023-05-19T00:00:33.295Z,47.47
2023-05-19T00:01:37.769Z,47.25
2023-05-19T00:02:40.951Z,42.80
2023-05-19T00:03:52.767Z,41.05
2023-05-19T00:04:55.597Z,41.47
2023-05-19T00:06:01.701Z,36.17
2023-05-19T00:07:05.696Z,33.80
2023-05-19T00:08:10.765Z,28.70
2023-05-19T00:09:13.301Z,34.75
2023-05-19T00:10:18.727Z,50.35
2023-05-19T00:11:23.011Z,37.90
2023-05-19T00:12:25.645Z,40.05
2023-05-19T00:13:29.154Z,39.22
2023-05-19T00:14:31.844Z,41.95
2023-05-19T00:15:35.656Z,38.35
2023-05-19T00:16:38.891Z,40.80
2023-05-19T00:17:42.586Z,43.55
2023-05-19T00:18:44.837Z,40.70
2023-05-19T00:19:47.253Z,42.03
2023-05-19T00:20:49.467Z,41.92
2023-05-19T00:21:51.690Z,41.28
2023-05-19T00:22:53.837Z,37.80
2023-05-19T00:23:56.284Z,39.17
2023-05-19T00:24:58.457Z,44.38
2023-05-19T00:26:02.030Z,44.92
2023-05-19T00:27:04.686Z,38.85
2023-05-19T00:28:06.886Z,36.63
2023-05-19T00:29:09.080Z,44.25
2023-05-19T00:30:11.813Z,38.70
2023-05-19T00:31:13.972Z,41.72
2023-05-19T00:32:16.159Z,40.63
2023-05-19T00:33:18.325Z,42.83
2023-05-19T00:34:20.570Z,51.72
2023-05-19T00:35:23.684Z,54.70
2023-05-19T00:36:26.214Z,49.92
2023-05-19T00:37:28.366Z,47.42
2023-05-19T00:38:31.700Z,41.63
2023-05-19T00:39:33.920Z,42.55
2023-05-19T00:40:36.638Z,46.60
2023-05-19T00:41:40.342Z,44.15
2023-05-19T00:42:42.629Z,55.08
2023-05-19T00:43:44.994Z,53.38
2023-05-19T00:44:47.114Z,55.67
2023-05-19T00:45:49.278Z,53.03
2023-05-19T00:46:51.469Z,55.70
2023-05-19T00:47:53.687Z,45.20
2023-05-19T00:48:55.894Z,51.10
2023-05-19T00:49:58.019Z,50.55
2023-05-19T00:51:04.807Z,49.38
2023-05-19T00:52:07.619Z,43.28
2023-05-19T00:53:10.170Z,44.88
2023-05-19T00:54:12.537Z,46.78
2023-05-19T00:55:15.427Z,43.78
2023-05-19T00:56:18.546Z,30.35
2023-05-19T00:57:22.547Z,38.03
2023-05-19T00:58:29.322Z,39.80
2023-05-19T00:59:31.518Z,35.50
2023-05-19T01:00:35.237Z,33.63
2023-05-19T01:01:37.791Z,37.70
2023-05-19T01:02:40.819Z,37.25
2023-05-19T01:03:44.682Z,39.33
2023-05-19T01:04:47.683Z,40.08
2023-05-19T01:05:49.916Z,42.13
2023-05-19T01:06:54.929Z,40.60
2023-05-19T01:07:57.065Z,39.55
2023-05-19T01:08:59.470Z,40.45
2023-05-19T01:10:01.737Z,35.25
2023-05-19T01:11:04.423Z,41.70
2023-05-19T01:12:07.612Z,43.15
2023-05-19T01:13:11.442Z,50.00
2023-05-19T01:14:13.708Z,43.80
2023-05-19T01:15:16.217Z,60.55
2023-05-19T01:16:25.191Z,100.07
2023-05-19T01:17:34.635Z,116.45
2023-05-19T01:18:44.570Z,76.50
2023-05-19T01:20:05.253Z,74.07
2023-05-19T01:21:36.308Z,56.90
2023-05-19T01:23:08.656Z,62.55
2023-05-19T01:24:34.500Z,58.28
2023-05-19T01:26:09.691Z,46.65
2023-05-19T01:27:49.126Z,43.20
2023-05-19T01:29:09.068Z,41.70
2023-05-19T01:30:28.778Z,38.63
2023-05-19T01:32:48.802Z,39.90
2023-05-19T01:33:53.120Z,38.67
2023-05-19T01:34:57.179Z,36.72
2023-05-19T01:36:00.469Z,37.72
2023-05-19T01:37:04.038Z,36.00
2023-05-19T01:38:09.217Z,35.55
2023-05-19T01:39:12.472Z,35.15
2023-05-19T01:40:15.050Z,33.28
2023-05-19T01:41:19.205Z,35.10
2023-05-19T01:42:22.428Z,34.50
2023-05-19T01:43:26.348Z,31.13
2023-05-19T01:44:29.363Z,32.38
2023-05-19T01:45:34.485Z,30.35
2023-05-19T01:46:37.904Z,25.27
2023-05-19T01:47:42.553Z,38.15
2023-05-19T01:48:45.394Z,32.13
2023-05-19T01:49:47.595Z,25.90
2023-05-19T01:50:49.861Z,37.55
2023-05-19T01:51:53.468Z,40.50
2023-05-19T01:52:56.340Z,35.00
2023-05-19T01:53:58.580Z,28.25
2023-05-19T01:55:00.869Z,28.88
2023-05-19T01:56:03.901Z,25.42
2023-05-19T01:57:16.025Z,29.73
2023-05-19T01:58:25.421Z,29.75
2023-05-19T01:59:41.468Z,30.00
2023-05-19T02:00:54.443Z,25.67
2023-05-19T02:02:00.839Z,26.70
2023-05-19T02:03:16.340Z,24.90
2023-05-19T02:04:29.348Z,25.58
2023-05-19T02:05:38.666Z,21.95
2023-05-19T02:06:46.366Z,25.38
2023-05-19T02:07:57.447Z,25.17
2023-05-19T02:09:03.883Z,31.17
2023-05-19T02:10:11.255Z,29.73
2023-05-19T02:11:18.853Z,31.02
2023-05-19T02:12:25.987Z,24.73
2023-05-19T02:13:34.011Z,24.95
2023-05-19T02:14:40.261Z,25.38
2023-05-19T02:15:44.243Z,27.27
2023-05-19T02:16:49.227Z,29.67
2023-05-19T02:17:54.916Z,23.65
2023-05-19T02:18:57.535Z,30.30
2023-05-19T02:19:59.946Z,26.23
2023-05-19T02:21:02.234Z,27.52
2023-05-19T02:22:05.088Z,21.48
2023-05-19T02:23:07.526Z,21.85
2023-05-19T02:24:09.753Z,22.27
2023-05-19T02:25:12.470Z,22.65
2023-05-19T02:26:14.970Z,23.40
2023-05-19T02:27:17.275Z,21.90
2023-05-19T02:28:19.403Z,30.50
2023-05-19T02:29:21.590Z,26.23
2023-05-19T02:30:23.808Z,35.50
2023-05-19T02:31:26.143Z,21.58
2023-05-19T02:32:29.728Z,30.95
2023-05-19T02:33:32.456Z,20.95
2023-05-19T02:34:34.673Z,21.92
2023-05-19T02:35:37.006Z,26.65
2023-05-19T02:36:41.434Z,31.77
2023-05-19T02:37:43.626Z,25.58
2023-05-19T02:38:45.873Z,33.72
2023-05-19T02:39:48.002Z,27.35
2023-05-19T02:40:51.854Z,24.02
2023-05-19T02:41:54.018Z,29.40
2023-05-19T02:42:56.192Z,23.23
2023-05-19T02:43:58.356Z,30.63
2023-05-19T02:45:00.887Z,29.55
2023-05-19T02:46:03.195Z,28.50
2023-05-19T02:47:05.733Z,21.65
2023-05-19T02:48:09.526Z,23.55
2023-05-19T02:49:11.749Z,25.48
2023-05-19T02:50:14.936Z,27.98
2023-05-19T02:51:17.433Z,32.05
2023-05-19T02:52:19.624Z,22.33
2023-05-19T02:53:22.420Z,23.63
2023-05-19T02:54:24.613Z,22.30
2023-05-19T02:55:26.859Z,23.83
2023-05-19T02:56:29.003Z,20.77
2023-05-19T02:57:31.902Z,29.02
2023-05-19T02:58:34.237Z,27.27
2023-05-19T02:59:36.707Z,26.90
2023-05-19T03:00:38.993Z,19.65
2023-05-19T03:01:41.232Z,19.83
2023-05-19T03:02:44.259Z,21.13
2023-05-19T03:03:48.025Z,17.58
2023-05-19T03:04:51.022Z,21.25
2023-05-19T03:05:53.816Z,20.33
2023-05-19T03:06:55.995Z,19.80
2023-05-19T03:07:58.330Z,22.42
2023-05-19T03:09:00.495Z,31.83
2023-05-19T03:10:04.198Z,28.38
2023-05-19T03:11:06.532Z,33.45
2023-05-19T03:12:08.878Z,32.50
2023-05-19T03:13:11.364Z,38.63
2023-05-19T03:14:16.403Z,25.95
2023-05-19T03:15:19.333Z,29.42
2023-05-19T03:16:22.070Z,29.83
2023-05-19T03:17:24.301Z,36.58
2023-05-19T03:18:26.947Z,58.65
2023-05-19T03:19:32.552Z,65.80
2023-05-19T03:20:35.161Z,65.10
2023-05-19T03:21:37.577Z,70.38
2023-05-19T03:22:39.735Z,83.47
2023-05-19T03:23:41.908Z,53.13
2023-05-19T03:24:44.129Z,52.60
2023-05-19T03:25:46.297Z,58.53
2023-05-19T03:26:48.526Z,32.60
2023-05-19T03:27:50.749Z,48.05
2023-05-19T03:28:53.027Z,56.90
2023-05-19T03:29:55.308Z,52.60
2023-05-19T03:30:57.514Z,42.05
2023-05-19T03:32:00.033Z,39.35
2023-05-19T03:33:03.253Z,41.45
2023-05-19T03:34:05.662Z,45.10
2023-05-19T03:35:09.741Z,47.67
2023-05-19T03:36:12.737Z,46.53
2023-05-19T03:37:14.964Z,44.20
2023-05-19T03:38:17.139Z,51.05
2023-05-19T03:39:19.290Z,42.40
2023-05-19T03:40:21.595Z,37.55
2023-05-19T03:41:23.806Z,46.50
2023-05-19T03:42:26.031Z,38.53
2023-05-19T03:43:28.166Z,34.63
2023-05-19T03:44:30.317Z,33.25
2023-05-19T03:45:32.436Z,25.70
2023-05-19T03:46:34.589Z,26.77
2023-05-19T03:47:36.735Z,26.08
2023-05-19T03:48:38.921Z,15.77
2023-05-19T03:49:41.044Z,15.63
2023-05-19T03:50:44.882Z,21.58
2023-05-19T03:51:48.422Z,20.05
2023-05-19T03:52:50.622Z,16.90
2023-05-19T03:53:52.810Z,15.93
2023-05-19T03:54:55.029Z,13.68
2023-05-19T03:55:57.309Z,9.43
2023-05-19T03:57:00.698Z,10.35
2023-05-19T03:58:02.881Z,8.80
2023-05-19T03:59:07.125Z,8.65
2023-05-19T04:00:11.584Z,6.45
2023-05-19T04:01:14.025Z,6.25
2023-05-19T04:02:16.569Z,2.30
2023-05-19T04:03:19.079Z,2.88
2023-05-19T04:04:21.802Z,3.40
2023-05-19T04:05:24.529Z,3.05
2023-05-19T04:06:28.070Z,6.03
2023-05-19T04:07:30.257Z,4.20
2023-05-19T04:08:32.595Z,2.45
2023-05-19T04:09:35.599Z,2.25
2023-05-19T04:10:37.893Z,2.05
2023-05-19T04:11:40.396Z,3.55
2023-05-19T04:12:42.703Z,10.32
2023-05-19T04:13:45.279Z,3.08
2023-05-19T04:14:47.504Z,4.78
2023-05-19T04:15:49.774Z,7.30
2023-05-19T04:16:52.390Z,3.10
2023-05-19T04:17:54.573Z,1.33
2023-05-19T04:18:57.093Z,3.75
2023-05-19T04:19:59.754Z,4.53
2023-05-19T04:21:01.905Z,3.70
2023-05-19T04:22:05.888Z,2.33
2023-05-19T04:23:08.748Z,3.08
2023-05-19T04:24:10.931Z,2.70
2023-05-19T04:25:14.492Z,3.35
2023-05-19T04:26:17.999Z,2.20
2023-05-19T04:27:20.380Z,3.65
2023-05-19T04:28:23.972Z,3.78
2023-05-19T04:29:26.174Z,5.03
2023-05-19T04:30:28.659Z,3.15
2023-05-19T04:31:31.445Z,4.20
2023-05-19T04:32:33.945Z,4.35
2023-05-19T04:33:36.314Z,6.90
2023-05-19T04:34:40.439Z,3.85
2023-05-19T04:35:44.188Z,4.65
2023-05-19T04:36:46.359Z,3.33
2023-05-19T04:37:49.964Z,3.60
2023-05-19T04:38:54.921Z,1.73
2023-05-19T04:39:57.251Z,7.10
2023-05-19T04:41:01.297Z,3.55
2023-05-19T04:42:03.547Z,1.58
2023-05-19T04:43:07.343Z,3.75
2023-05-19T04:44:09.569Z,2.78
2023-05-19T04:45:15.125Z,3.35
2023-05-19T04:46:17.350Z,4.05
2023-05-19T04:47:21.679Z,4.57
2023-05-19T04:48:24.225Z,5.18
2023-05-19T04:49:26.378Z,5.07
2023-05-19T04:50:31.042Z,5.38
2023-05-19T04:51:33.498Z,4.88
2023-05-19T04:52:36.276Z,6.38
2023-05-19T04:53:40.663Z,5.88
2023-05-19T04:54:42.795Z,5.60
2023-05-19T04:55:45.404Z,4.05
2023-05-19T04:56:47.572Z,4.00
2023-05-19T04:57:50.116Z,5.07
2023-05-19T04:58:53.804Z,2.92
2023-05-19T05:00:00.367Z,3.88
2023-05-19T05:01:02.619Z,5.00
2023-05-19T05:02:04.918Z,2.25
2023-05-19T05:03:08.163Z,5.95
2023-05-19T05:04:10.710Z,3.58
2023-05-19T05:05:12.970Z,5.47
2023-05-19T05:06:15.404Z,5.63
2023-05-19T05:07:17.592Z,3.60
2023-05-19T05:08:22.998Z,8.57
2023-05-19T05:09:26.573Z,5.10
2023-05-19T05:10:28.798Z,2.83
2023-05-19T05:11:31.646Z,5.63
2023-05-19T05:12:36.335Z,1.60
2023-05-19T05:13:39.124Z,2.80
2023-05-19T05:14:41.808Z,3.35
2023-05-19T05:15:44.526Z,2.13
2023-05-19T05:16:47.394Z,6.45
2023-05-19T05:17:50.183Z,7.82
2023-05-19T05:18:52.961Z,2.58
2023-05-19T05:19:56.005Z,4.32
2023-05-19T05:20:58.946Z,1.85
2023-05-19T05:22:01.833Z,4.43
2023-05-19T05:23:04.586Z,2.75
2023-05-19T05:24:08.524Z,6.57
2023-05-19T05:25:14.079Z,2.72
2023-05-19T05:26:28.622Z,2.95
2023-05-19T05:27:31.284Z,3.47
2023-05-19T05:28:33.403Z,2.40
2023-05-19T05:29:35.586Z,1.63
2023-05-19T05:30:38.007Z,3.72
2023-05-19T05:31:40.200Z,2.65
2023-05-19T05:32:42.570Z,5.28
2023-05-19T05:33:45.603Z,2.80
2023-05-19T05:34:47.931Z,2.53
2023-05-19T05:35:50.632Z,2.38
2023-05-19T05:36:52.759Z,1.98
2023-05-19T05:37:55.069Z,2.70
2023-05-19T05:38:57.364Z,1.33
2023-05-19T05:39:59.547Z,2.95
2023-05-19T05:41:03.530Z,1.73
2023-05-19T05:42:06.032Z,2.92
2023-05-19T05:43:08.246Z,2.15
2023-05-19T05:44:10.451Z,2.58
2023-05-19T05:45:13.140Z,2.75
2023-05-19T05:46:15.394Z,1.67
2023-05-19T05:47:18.112Z,1.52
2023-05-19T05:48:20.904Z,3.60
2023-05-19T05:49:23.596Z,4.28
2023-05-19T05:50:26.563Z,3.53
2023-05-19T05:51:29.225Z,2.67
2023-05-19T05:52:32.437Z,8.23
2023-05-19T05:53:42.090Z,2.58
2023-05-19T05:54:44.851Z,4.10
2023-05-19T05:55:48.331Z,2.42
2023-05-19T05:56:52.693Z,3.60
2023-05-19T05:57:56.994Z,1.60
2023-05-19T05:58:59.289Z,2.60
2023-05-19T06:00:02.510Z,2.28
2023-05-19T06:01:05.521Z,2.33
2023-05-19T06:02:08.648Z,1.85
2023-05-19T06:03:11.528Z,1.52
2023-05-19T06:04:14.021Z,2.70
2023-05-19T06:05:16.651Z,0.85
2023-05-19T06:06:18.882Z,4.55
2023-05-19T06:07:21.930Z,1.83
2023-05-19T06:08:24.174Z,1.25
2023-05-19T06:09:26.615Z,2.47
2023-05-19T06:10:28.940Z,4.72
2023-05-19T06:11:31.378Z,4.32
2023-05-19T06:12:35.373Z,3.20
2023-05-19T06:13:38.694Z,2.10
2023-05-19T06:14:40.988Z,2.85
2023-05-19T06:15:43.307Z,3.30
2023-05-19T06:16:45.862Z,2.75
2023-05-19T06:17:48.710Z,1.52
2023-05-19T06:18:51.004Z,2.15
2023-05-19T06:19:53.238Z,3.47
2023-05-19T06:20:55.525Z,2.10
2023-05-19T06:21:57.670Z,1.05
2023-05-19T06:23:00.942Z,3.67
2023-05-19T06:24:03.161Z,2.95
2023-05-19T06:25:06.215Z,2.15
2023-05-19T06:26:08.538Z,2.80
2023-05-19T06:27:11.129Z,5.13
2023-05-19T06:28:14.802Z,3.65
2023-05-19T06:29:17.277Z,1.88
2023-05-19T06:30:19.646Z,2.53
2023-05-19T06:31:22.284Z,2.88
2023-05-19T06:32:24.625Z,2.65
2023-05-19T06:33:29.089Z,8.45
2023-05-19T06:34:32.337Z,2.70
2023-05-19T06:35:34.595Z,2.60
2023-05-19T06:36:36.956Z,1.55
2023-05-19T06:37:40.414Z,2.90
2023-05-19T06:38:42.597Z,2.40
2023-05-19T06:39:44.780Z,4.38
2023-05-19T06:40:48.267Z,1.20
2023-05-19T06:41:50.501Z,3.00
2023-05-19T06:42:52.730Z,2.60
2023-05-19T06:43:56.628Z,1.52
2023-05-19T06:44:58.914Z,4.00
2023-05-19T06:46:01.292Z,2.03
2023-05-19T06:47:03.662Z,2.22
2023-05-19T06:48:06.406Z,1.75
2023-05-19T06:49:08.613Z,3.75
2023-05-19T06:50:11.209Z,5.93
2023-05-19T06:51:13.433Z,4.55
2023-05-19T06:52:16.135Z,2.75
2023-05-19T06:53:20.990Z,1.42
2023-05-19T06:54:23.214Z,3.58
2023-05-19T06:55:25.653Z,5.75
2023-05-19T06:56:27.865Z,1.85
2023-05-19T06:57:30.057Z,6.00
2023-05-19T06:58:32.370Z,3.58
2023-05-19T06:59:37.616Z,2.75
2023-05-19T07:00:39.817Z,3.70
2023-05-19T07:01:42.039Z,2.53
2023-05-19T07:02:44.411Z,2.67
2023-05-19T07:03:47.026Z,1.92
2023-05-19T07:04:51.400Z,1.98
2023-05-19T07:05:53.782Z,1.67
2023-05-19T07:06:56.017Z,2.20
2023-05-19T07:07:58.229Z,1.50
2023-05-19T07:09:00.434Z,3.10
2023-05-19T07:10:03.190Z,1.92
2023-05-19T07:11:06.121Z,1.85
2023-05-19T07:12:08.353Z,2.38
2023-05-19T07:13:10.528Z,3.45
2023-05-19T07:14:12.727Z,2.78
2023-05-19T07:15:16.537Z,3.25
2023-05-19T07:16:18.762Z,3.00
2023-05-19T07:17:20.989Z,3.05
2023-05-19T07:18:23.345Z,4.57
2023-05-19T07:19:25.753Z,1.63
2023-05-19T07:20:28.029Z,0.85
2023-05-19T07:21:30.180Z,0.93
2023-05-19T07:22:35.095Z,10.07
2023-05-19T07:23:37.248Z,1.52
2023-05-19T07:24:39.555Z,2.10
2023-05-19T07:25:41.719Z,1.85
2023-05-19T07:26:44.151Z,2.63
2023-05-19T07:27:46.378Z,2.90
2023-05-19T07:28:48.560Z,3.13
2023-05-19T07:29:50.731Z,8.10
2023-05-19T07:30:54.320Z,3.88
2023-05-19T07:31:58.112Z,3.17
2023-05-19T07:33:00.623Z,3.45
2023-05-19T07:34:03.616Z,1.55
2023-05-19T07:35:07.008Z,2.65
2023-05-19T07:36:09.403Z,5.00
2023-05-19T07:37:11.585Z,5.15
2023-05-19T07:38:13.921Z,2.22
2023-05-19T07:39:17.982Z,2.22
2023-05-19T07:40:20.764Z,1.73
2023-05-19T07:41:23.221Z,1.27
2023-05-19T07:42:25.561Z,5.05
2023-05-19T07:43:27.751Z,5.32
2023-05-19T07:44:31.480Z,2.33
2023-05-19T07:45:33.731Z,2.53
2023-05-19T07:46:38.041Z,2.60
2023-05-19T07:47:40.465Z,4.18
2023-05-19T07:48:42.828Z,2.97
2023-05-19T07:49:45.038Z,1.35
2023-05-19T07:50:47.359Z,1.65
2023-05-19T07:51:49.841Z,5.75
2023-05-19T07:52:52.025Z,2.10
2023-05-19T07:53:54.235Z,2.60
2023-05-19T07:54:56.407Z,1.27
2023-05-19T07:55:58.863Z,3.17
2023-05-19T07:57:01.138Z,1.75
2023-05-19T07:58:03.759Z,1.20
2023-05-19T07:59:08.168Z,2.30
2023-05-19T08:00:12.630Z,3.03
2023-05-19T08:01:14.837Z,2.28
2023-05-19T08:02:19.038Z,1.98
2023-05-19T08:03:23.632Z,1.80
2023-05-19T08:04:26.056Z,2.17
2023-05-19T08:05:29.833Z,5.20
2023-05-19T08:06:32.346Z,2.97
2023-05-19T08:07:34.703Z,4.18
2023-05-19T08:08:36.947Z,3.25
2023-05-19T08:09:39.070Z,4.20
2023-05-19T08:10:41.445Z,2.70
2023-05-19T08:11:44.845Z,7.85
2023-05-19T08:12:47.208Z,1.98
2023-05-19T08:13:49.479Z,2.47
2023-05-19T08:14:52.689Z,2.80
2023-05-19T08:15:59.919Z,2.80
2023-05-19T08:17:02.276Z,4.75
2023-05-19T08:18:06.061Z,10.57
2023-05-19T08:19:08.683Z,2.00
2023-05-19T08:20:12.474Z,1.52
2023-05-19T08:21:14.851Z,1.63
2023-05-19T08:22:17.093Z,4.13
2023-05-19T08:23:19.440Z,3.92
2023-05-19T08:24:21.680Z,1.60
2023-05-19T08:25:23.869Z,1.50
2023-05-19T08:26:26.429Z,3.80
2023-05-19T08:27:28.817Z,2.15
2023-05-19T08:28:31.028Z,1.20
2023-05-19T08:29:33.265Z,1.48
2023-05-19T08:30:35.617Z,10.63
2023-05-19T08:31:37.922Z,1.05
2023-05-19T08:32:40.227Z,2.35
2023-05-19T08:33:43.848Z,2.63
2023-05-19T08:34:46.064Z,3.95
2023-05-19T08:35:48.779Z,2.45
2023-05-19T08:36:50.968Z,2.53
2023-05-19T08:37:53.601Z,3.53
2023-05-19T08:38:55.955Z,1.35
2023-05-19T08:39:58.110Z,1.63
2023-05-19T08:41:00.491Z,2.05
2023-05-19T08:42:02.744Z,5.97
2023-05-19T08:43:04.943Z,1.70
2023-05-19T08:44:07.157Z,2.42
2023-05-19T08:45:10.166Z,3.42
2023-05-19T08:46:15.138Z,2.58
2023-05-19T08:47:17.913Z,1.42
2023-05-19T08:48:21.780Z,2.08
2023-05-19T08:49:31.033Z,1.00
2023-05-19T08:50:39.343Z,3.72
2023-05-19T08:51:50.588Z,2.83
2023-05-19T08:52:57.878Z,1.10
2023-05-19T08:54:12.718Z,1.30
2023-05-19T08:55:22.116Z,1.48
2023-05-19T08:56:25.366Z,0.57
2023-05-19T08:57:28.622Z,4.15
2023-05-19T08:58:32.272Z,4.53
2023-05-19T08:59:34.984Z,3.78
2023-05-19T09:00:37.736Z,1.73
2023-05-19T09:01:42.461Z,2.47
2023-05-19T09:02:55.133Z,1.58
2023-05-19T09:04:04.346Z,1.98
2023-05-19T09:05:09.400Z,1.92
2023-05-19T09:06:15.034Z,1.70
2023-05-19T09:07:18.973Z,0.82
2023-05-19T09:08:21.232Z,1.50
2023-05-19T09:09:23.464Z,1.60
2023-05-19T09:10:27.171Z,5.32
2023-05-19T09:11:30.984Z,4.13
2023-05-19T09:12:34.397Z,1.40
2023-05-19T09:13:36.647Z,2.15
2023-05-19T09:14:39.029Z,1.30
2023-05-19T09:15:42.326Z,2.03
2023-05-19T09:16:49.794Z,0.80
2023-05-19T09:17:52.164Z,1.83
2023-05-19T09:18:56.880Z,1.67
2023-05-19T09:20:02.190Z,0.93
2023-05-19T09:21:07.466Z,1.67
2023-05-19T09:22:09.723Z,1.70
2023-05-19T09:23:14.113Z,1.75
2023-05-19T09:24:17.012Z,1.67
2023-05-19T09:25:19.782Z,1.90
2023-05-19T09:26:23.486Z,3.33
2023-05-19T09:27:25.687Z,2.67
2023-05-19T09:28:30.494Z,4.35
2023-05-19T09:29:32.802Z,4.70
2023-05-19T09:30:35.030Z,1.33
2023-05-19T09:31:37.207Z,2.58
2023-05-19T09:32:39.471Z,3.92
2023-05-19T09:33:45.508Z,2.67
2023-05-19T09:34:48.089Z,4.20
2023-05-19T09:35:50.202Z,1.20
2023-05-19T09:36:54.161Z,3.22
2023-05-19T09:37:56.559Z,3.42
2023-05-19T09:38:58.681Z,2.95
2023-05-19T09:40:00.911Z,2.33
2023-05-19T09:41:03.701Z,2.17
2023-05-19T09:42:06.895Z,3.42
2023-05-19T09:43:09.973Z,4.47
2023-05-19T09:44:23.266Z,1.15
2023-05-19T09:45:28.857Z,3.85
2023-05-19T09:46:31.035Z,2.70
2023-05-19T09:47:39.709Z,1.77
2023-05-19T09:48:42.685Z,4.15
2023-05-19T09:49:47.752Z,5.70
2023-05-19T09:50:51.804Z,4.60
2023-05-19T09:51:56.761Z,1.25
2023-05-19T09:52:59.288Z,2.42
2023-05-19T09:54:01.574Z,2.63
2023-05-19T09:55:05.301Z,6.15
2023-05-19T09:56:10.095Z,3.33
2023-05-19T09:57:12.747Z,5.28
2023-05-19T09:58:18.620Z,2.80
2023-05-19T09:59:25.413Z,3.05
2023-05-19T10:00:28.818Z,4.00
2023-05-19T10:01:33.691Z,2.05
2023-05-19T10:02:37.103Z,2.13
2023-05-19T10:03:40.560Z,2.03
2023-05-19T10:04:43.571Z,5.40
2023-05-19T10:05:46.743Z,5.28
2023-05-19T10:06:53.744Z,1.67
2023-05-19T10:07:57.649Z,4.43
2023-05-19T10:09:00.671Z,3.17
2023-05-19T10:10:03.448Z,3.03
2023-05-19T10:11:06.608Z,3.17
2023-05-19T10:12:11.108Z,3.60
2023-05-19T10:13:13.641Z,3.28
2023-05-19T10:14:16.530Z,3.40
2023-05-19T10:15:22.187Z,3.05
2023-05-19T10:16:28.545Z,4.75
2023-05-19T10:17:32.462Z,2.88
2023-05-19T10:18:37.560Z,3.28
2023-05-19T10:19:43.933Z,3.00
2023-05-19T10:20:47.801Z,2.40
2023-05-19T10:21:51.072Z,1.77
2023-05-19T10:22:53.348Z,1.80
2023-05-19T10:23:56.905Z,2.60
2023-05-19T10:24:59.195Z,2.50
2023-05-19T10:26:05.155Z,2.63
2023-05-19T10:27:11.991Z,1.80
2023-05-19T10:28:17.714Z,2.78
2023-05-19T10:29:23.326Z,3.95
2023-05-19T10:30:29.478Z,3.92
2023-05-19T10:31:33.949Z,3.60
2023-05-19T10:32:38.260Z,1.95
2023-05-19T10:33:56.966Z,1.67
2023-05-19T10:35:20.542Z,4.97
2023-05-19T10:36:45.004Z,4.97
2023-05-19T10:37:56.278Z,5.43
2023-05-19T10:39:06.382Z,3.85
2023-05-19T10:40:13.842Z,3.22
2023-05-19T10:41:24.788Z,4.68
2023-05-19T10:42:36.720Z,3.05
2023-05-19T10:43:54.287Z,3.40
2023-05-19T10:45:05.646Z,3.20
2023-05-19T10:46:07.849Z,1.75
2023-05-19T10:47:12.430Z,2.13
2023-05-19T10:48:16.009Z,2.55
2023-05-19T10:49:21.706Z,21.98
2023-05-19T10:50:24.014Z,6.60
2023-05-19T10:51:31.703Z,9.32
2023-05-19T10:52:37.492Z,3.95
2023-05-19T10:53:46.379Z,4.43
2023-05-19T10:54:50.004Z,10.48
2023-05-19T10:55:54.037Z,5.63
2023-05-19T10:56:58.038Z,4.15
2023-05-19T10:58:00.558Z,3.03
2023-05-19T10:59:03.585Z,2.75
2023-05-19T11:00:30.187Z,2.25
2023-05-19T11:01:33.671Z,6.00
2023-05-19T11:02:41.195Z,2.15
2023-05-19T11:03:47.188Z,4.38
2023-05-19T11:04:51.793Z,1.83
2023-05-19T11:06:14.299Z,10.88
2023-05-19T11:07:19.547Z,10.32
2023-05-19T11:08:32.702Z,5.15
2023-05-19T11:09:41.200Z,3.15
2023-05-19T11:10:48.679Z,3.10
2023-05-19T11:11:52.046Z,2.75
2023-05-19T11:12:58.304Z,5.72
2023-05-19T11:14:01.730Z,4.50
2023-05-19T11:15:04.449Z,2.42
2023-05-19T11:16:08.427Z,2.95
2023-05-19T11:17:15.584Z,3.42
2023-05-19T11:18:19.354Z,2.50
2023-05-19T11:19:28.053Z,3.33
2023-05-19T11:20:35.196Z,3.85
2023-05-19T11:21:48.425Z,2.85
2023-05-19T11:23:07.245Z,1.60
2023-05-19T11:24:09.909Z,1.23
2023-05-19T11:25:12.171Z,4.18
2023-05-19T11:26:17.001Z,3.83
2023-05-19T11:27:25.199Z,5.03
2023-05-19T11:28:29.594Z,4.28
2023-05-19T11:29:34.268Z,4.13
2023-05-19T11:30:37.482Z,3.33
2023-05-19T11:31:40.150Z,2.00
2023-05-19T11:32:42.998Z,2.65
2023-05-19T11:33:45.795Z,3.13
2023-05-19T11:34:49.561Z,3.75
2023-05-19T11:35:51.773Z,3.30
2023-05-19T11:36:54.534Z,3.45
2023-05-19T11:38:01.908Z,2.08
2023-05-19T11:39:06.059Z,1.83
2023-05-19T11:40:09.460Z,3.72
2023-05-19T11:41:11.649Z,3.88
2023-05-19T11:42:16.100Z,2.60
2023-05-19T11:43:18.259Z,2.03
2023-05-19T11:44:20.479Z,6.18
2023-05-19T11:45:26.099Z,3.22
2023-05-19T11:46:28.686Z,5.72
2023-05-19T11:47:47.114Z,3.90
2023-05-19T11:49:04.686Z,5.18
2023-05-19T11:50:14.438Z,2.40
2023-05-19T11:51:19.292Z,3.60
2023-05-19T11:52:24.313Z,6.40
2023-05-19T11:53:26.583Z,1.55
2023-05-19T11:54:33.194Z,2.35
2023-05-19T11:55:36.953Z,4.65
2023-05-19T11:56:41.285Z,3.03
2023-05-19T11:58:02.722Z,1.92
2023-05-19T11:59:05.978Z,1.60
2023-05-19T12:00:09.344Z,2.75
2023-05-19T12:01:11.510Z,5.53
2023-05-19T12:02:19.250Z,4.35
2023-05-19T12:03:23.038Z,2.88
2023-05-19T12:04:25.758Z,4.38
2023-05-19T12:05:29.434Z,3.22
2023-05-19T12:06:31.915Z,3.17
2023-05-19T12:07:34.193Z,4.03
2023-05-19T12:08:36.894Z,3.53
2023-05-19T12:09:39.775Z,2.17
2023-05-19T12:10:42.044Z,6.03
2023-05-19T12:11:44.868Z,4.05
2023-05-19T12:12:52.133Z,2.90
2023-05-19T12:13:58.508Z,3.05
2023-05-19T12:15:04.224Z,3.53
2023-05-19T12:16:08.480Z,2.30
2023-05-19T12:17:12.812Z,2.50
2023-05-19T12:18:15.232Z,1.15
2023-05-19T12:19:17.732Z,5.90
2023-05-19T12:20:20.789Z,7.53
2023-05-19T12:21:23.529Z,3.28
2023-05-19T12:22:36.884Z,2.63
2023-05-19T12:23:40.105Z,3.08
2023-05-19T12:24:43.710Z,3.03
2023-05-19T12:25:46.183Z,3.05
2023-05-19T12:26:50.419Z,4.53
2023-05-19T12:27:58.401Z,4.00
2023-05-19T12:29:00.667Z,1.75
2023-05-19T12:30:04.883Z,1.98
2023-05-19T12:31:07.157Z,4.88
2023-05-19T12:32:09.949Z,4.80
2023-05-19T12:33:13.821Z,2.25
2023-05-19T12:34:16.108Z,1.83
2023-05-19T12:35:19.810Z,1.77
2023-05-19T12:36:24.210Z,2.95
2023-05-19T12:37:30.222Z,1.90
2023-05-19T12:38:32.686Z,1.70
2023-05-19T12:39:34.934Z,6.70
2023-05-19T12:40:41.965Z,3.35
2023-05-19T12:41:45.793Z,2.67
2023-05-19T12:42:49.063Z,2.88
2023-05-19T12:43:52.670Z,10.70
2023-05-19T12:44:55.614Z,8.70
2023-05-19T12:45:58.006Z,1.85
2023-05-19T12:47:00.630Z,4.13
2023-05-19T12:48:04.925Z,1.40
2023-05-19T12:49:07.063Z,2.20
2023-05-19T12:50:10.735Z,2.55
2023-05-19T12:51:16.872Z,3.80
2023-05-19T12:52:19.133Z,1.60
2023-05-19T12:53:21.391Z,2.67
2023-05-19T12:54:23.819Z,4.15
2023-05-19T12:55:26.228Z,3.10
2023-05-19T12:56:28.852Z,1.50
2023-05-19T12:57:33.877Z,1.85
2023-05-19T12:58:37.665Z,2.83
2023-05-19T12:59:43.206Z,4.63
2023-05-19T13:00:50.609Z,3.00
2023-05-19T13:01:56.803Z,2.22
2023-05-19T13:03:00.910Z,5.82
2023-05-19T13:04:05.563Z,2.50
2023-05-19T13:05:09.230Z,1.98
2023-05-19T13:06:11.913Z,5.85
2023-05-19T13:07:14.618Z,1.80
2023-05-19T13:08:18.487Z,7.90
2023-05-19T13:09:21.255Z,2.78
2023-05-19T13:10:24.551Z,2.35
2023-05-19T13:11:26.912Z,2.55
2023-05-19T13:12:29.460Z,1.05
2023-05-19T13:13:31.651Z,1.45
2023-05-19T13:14:33.788Z,2.22
2023-05-19T13:15:38.879Z,4.18
2023-05-19T13:16:41.139Z,2.58
2023-05-19T13:17:46.436Z,1.30
2023-05-19T13:18:48.865Z,2.15
2023-05-19T13:19:51.696Z,3.67
2023-05-19T13:20:54.734Z,1.83
2023-05-19T13:21:57.449Z,4.80
2023-05-19T13:23:00.421Z,3.60
2023-05-19T13:24:04.463Z,3.97
2023-05-19T13:25:08.181Z,5.07
2023-05-19T13:26:12.702Z,2.95
2023-05-19T13:27:14.898Z,3.35
2023-05-19T13:28:17.026Z,3.25
2023-05-19T13:29:19.183Z,4.97
2023-05-19T13:30:22.764Z,2.38
2023-05-19T13:31:26.394Z,2.35
2023-05-19T13:32:28.871Z,2.92
2023-05-19T13:33:32.272Z,1.65
2023-05-19T13:34:34.406Z,3.13
2023-05-19T13:35:39.678Z,2.75
2023-05-19T13:36:42.919Z,1.10
2023-05-19T13:37:45.394Z,1.92
2023-05-19T13:38:47.574Z,3.15
2023-05-19T13:39:49.696Z,3.60
2023-05-19T13:40:51.881Z,5.07
2023-05-19T13:41:54.058Z,8.75
2023-05-19T13:42:56.416Z,1.92
2023-05-19T13:43:59.541Z,3.42
2023-05-19T13:45:02.092Z,3.00
2023-05-19T13:46:04.728Z,3.22
2023-05-19T13:47:08.654Z,1.77
2023-05-19T13:48:12.232Z,2.45
2023-05-19T13:49:14.460Z,1.90
2023-05-19T13:50:16.609Z,1.65
2023-05-19T13:51:19.199Z,2.85
2023-05-19T13:52:21.766Z,2.92
2023-05-19T13:53:24.023Z,2.85
2023-05-19T13:54:26.307Z,1.55
2023-05-19T13:55:28.521Z,5.47
2023-05-19T13:56:31.800Z,1.55
2023-05-19T13:57:34.115Z,4.05
2023-05-19T13:58:36.352Z,2.28
2023-05-19T13:59:48.983Z,3.90
2023-05-19T14:02:02.964Z,5.53
2023-05-19T14:03:07.180Z,6.10
2023-05-19T14:04:09.609Z,4.82
2023-05-19T14:05:11.918Z,2.08
2023-05-19T14:06:14.068Z,2.67